Terminal Aerodrome Forecast
Issued by NWS

Home | Current Version | Previous Version | Text Only | Print | Product List | Glossary On
Versions: 1 2 3 4 5 6 7 8 9 10 11 12 13 14 15 16 17 18 19 20 21 22 23 24
000
FTUS41 KILN 241100
TAFLCK
TAF
KLCK 241133Z 2412/2512 VRB03KT P6SM BKN200
      TEMPO 2412/2413 5SM BR
     FM241600 26005KT P6SM SKC
     FM242300 24003KT P6SM SCT040
     FM250800 21004KT P6SM BKN035=

USA.gov is the U.S. government's official web portal to all federal, state and local government web resources and services.